X  Close Metar Aviation Weather Data     LIML Linate
Temperature
16°C Temperature
2°C Dewpoint
39% Humidity



Wind
3 KM/H
2 MPH
1 M/S
2 KTS



190°
South
Current Conditions

Clear Clear
Pressure 1022.92 (hPa) - 30.21 (inHg)
Visibility 6.2 (mile) - 10 (km)
Airport
Airport-code LIML

Location: Linate
Distance: 100 (km)

Metar:
LIML 051820Z 19002KT CAVOK 16/02 Q1023 NOSIG

Time: 04-05-2020 20:20 CEST